createdAt,value
2018-07-22T00:01:55.162Z,10.52
2018-07-22T00:04:22.675Z,9.32
2018-07-22T00:09:43.711Z,10.60
2018-07-22T00:12:12.014Z,11.50
2018-07-22T00:14:40.307Z,10.70
2018-07-22T00:17:08.613Z,9.66
2018-07-22T00:19:36.873Z,11.16
2018-07-22T00:22:05.131Z,10.98
2018-07-22T00:24:33.441Z,11.98
2018-07-22T00:29:55.733Z,10.58
2018-07-22T00:32:24.025Z,11.48
2018-07-22T00:34:59.557Z,12.22
2018-07-22T00:37:27.857Z,10.86
2018-07-22T00:39:56.133Z,11.26
2018-07-22T00:42:24.401Z,11.66
2018-07-22T00:47:46.522Z,11.30
2018-07-22T00:50:14.797Z,11.22
2018-07-22T00:52:43.087Z,10.66
2018-07-22T00:58:04.069Z,11.40
2018-07-22T01:00:32.331Z,11.22
2018-07-22T01:03:00.624Z,11.22
2018-07-22T01:05:28.889Z,11.76
2018-07-22T01:07:56.431Z,10.10
2018-07-22T01:10:24.692Z,10.30
2018-07-22T01:12:52.966Z,12.00
2018-07-22T01:15:21.270Z,10.88
2018-07-22T01:17:49.572Z,10.76
2018-07-22T01:20:17.877Z,10.36
2018-07-22T01:28:32.167Z,9.54
2018-07-22T01:31:00.466Z,11.50
2018-07-22T01:33:28.728Z,10.88
2018-07-22T01:36:14.161Z,10.22
2018-07-22T01:38:42.434Z,10.62
2018-07-22T01:41:10.705Z,10.70
2018-07-22T01:49:24.518Z,10.62
2018-07-22T01:51:52.777Z,11.54
2018-07-22T01:54:21.066Z,13.60
2018-07-22T01:56:49.375Z,11.80
2018-07-22T01:59:17.662Z,12.68
2018-07-22T02:01:45.925Z,11.82
2018-07-22T02:04:33.549Z,12.66
2018-07-22T02:07:01.837Z,12.02
2018-07-22T02:09:30.088Z,12.60
2018-07-22T02:11:58.365Z,13.94
2018-07-22T02:14:26.615Z,13.82
2018-07-22T02:16:54.905Z,14.28
2018-07-22T02:22:15.903Z,15.40
2018-07-22T02:24:45.061Z,16.42
2018-07-22T02:27:13.324Z,15.26
2018-07-22T02:29:41.612Z,16.32
2018-07-22T02:32:19.645Z,14.96
2018-07-22T02:37:40.932Z,15.72
2018-07-22T02:40:09.238Z,16.12
2018-07-22T02:45:30.348Z,15.34
2018-07-22T02:47:58.632Z,15.82
2018-07-22T02:50:26.895Z,15.08
2018-07-22T02:52:55.181Z,14.96
2018-07-22T02:58:15.917Z,15.26
2018-07-22T03:00:44.208Z,13.80
2018-07-22T03:06:06.133Z,14.20
2018-07-22T03:17:14.012Z,13.60
2018-07-22T03:19:42.264Z,17.44
2018-07-22T03:22:10.526Z,15.18
2018-07-22T03:24:38.044Z,14.74
2018-07-22T03:27:06.317Z,15.16
2018-07-22T03:29:34.616Z,14.64
2018-07-22T03:32:02.888Z,16.56
2018-07-22T03:34:31.187Z,14.56
2018-07-22T03:36:59.446Z,16.80
2018-07-22T03:39:27.713Z,15.34
2018-07-22T03:41:55.999Z,16.08
2018-07-22T03:44:38.291Z,17.40
2018-07-22T03:47:06.638Z,17.68
2018-07-22T03:49:34.885Z,17.02
2018-07-22T03:52:03.195Z,16.76
2018-07-22T03:54:31.458Z,18.50
2018-07-22T03:56:59.706Z,18.52
2018-07-22T04:05:15.111Z,17.42
2018-07-22T04:07:43.374Z,17.22
2018-07-22T04:10:11.667Z,19.64
2018-07-22T04:15:39.700Z,17.12
2018-07-22T04:18:07.969Z,17.36
2018-07-22T04:20:36.256Z,18.46
2018-07-22T04:25:57.988Z,17.02
2018-07-22T04:28:26.261Z,19.08
2018-07-22T04:30:54.555Z,20.06
2018-07-22T04:33:22.852Z,18.36
2018-07-22T04:35:51.141Z,19.44
2018-07-22T04:38:19.416Z,20.38
2018-07-22T04:40:47.709Z,19.46
2018-07-22T04:43:15.980Z,19.22
2018-07-22T04:45:44.275Z,17.92
2018-07-22T04:48:12.565Z,19.04
2018-07-22T04:50:40.856Z,19.58
2018-07-22T04:53:09.152Z,18.14
2018-07-22T04:55:37.409Z,19.08
2018-07-22T04:58:05.705Z,19.98
2018-07-22T05:00:33.952Z,20.76
2018-07-22T05:03:02.213Z,20.46
2018-07-22T05:05:30.565Z,20.94
2018-07-22T05:07:58.834Z,19.72
2018-07-22T05:10:27.129Z,20.40
2018-07-22T05:12:55.388Z,20.78
2018-07-22T05:15:23.682Z,21.44
2018-07-22T05:17:51.941Z,21.72
2018-07-22T05:20:20.227Z,20.90
2018-07-22T05:22:48.483Z,19.06
2018-07-22T05:25:16.767Z,20.90
2018-07-22T05:27:45.044Z,21.36
2018-07-22T05:30:13.336Z,21.34
2018-07-22T05:32:41.602Z,23.36
2018-07-22T05:35:09.907Z,20.44
2018-07-22T05:37:37.401Z,20.34
2018-07-22T05:40:05.666Z,20.40
2018-07-22T05:42:33.949Z,20.32
2018-07-22T05:45:03.137Z,20.76
2018-07-22T05:47:31.430Z,20.62
2018-07-22T05:49:59.687Z,20.32
2018-07-22T05:52:27.967Z,19.94
2018-07-22T05:54:56.225Z,18.76
2018-07-22T05:57:24.513Z,17.84
2018-07-22T05:59:52.768Z,18.42
2018-07-22T06:02:21.052Z,15.70
2018-07-22T06:04:50.286Z,19.06
2018-07-22T06:07:18.591Z,14.62
2018-07-22T06:09:46.839Z,17.08
2018-07-22T06:12:15.146Z,18.56
2018-07-22T06:14:43.407Z,17.66
2018-07-22T06:17:11.685Z,16.60
2018-07-22T06:19:39.966Z,15.62
2018-07-22T06:22:08.220Z,16.14
2018-07-22T06:24:37.417Z,15.02
2018-07-22T06:27:05.739Z,15.94
2018-07-22T06:29:34.027Z,13.98
2018-07-22T06:32:02.287Z,14.56
2018-07-22T06:34:30.552Z,13.62
2018-07-22T06:36:58.857Z,12.10
2018-07-22T06:39:27.147Z,13.90
2018-07-22T06:41:55.437Z,13.08
2018-07-22T06:44:22.931Z,14.36
2018-07-22T06:46:51.216Z,12.88
2018-07-22T06:49:19.465Z,14.78
2018-07-22T06:51:47.752Z,14.96
2018-07-22T06:54:16.019Z,13.22
2018-07-22T06:56:44.307Z,10.90
2018-07-22T06:59:12.552Z,11.90
2018-07-22T07:01:40.846Z,11.22
2018-07-22T07:04:09.100Z,12.14
2018-07-22T07:06:37.396Z,11.10
2018-07-22T07:09:06.608Z,13.10
2018-07-22T07:11:34.963Z,10.74
2018-07-22T07:14:03.228Z,10.22
2018-07-22T07:16:31.513Z,9.90
2018-07-22T07:19:01.704Z,10.86
2018-07-22T07:21:30.100Z,9.32
2018-07-22T07:23:58.375Z,9.98
2018-07-22T07:26:26.630Z,10.54
2018-07-22T07:28:54.912Z,10.00
2018-07-22T07:31:23.169Z,9.38
2018-07-22T07:33:52.348Z,10.32
2018-07-22T07:36:20.620Z,10.10
2018-07-22T07:41:59.336Z,9.02
2018-07-22T07:44:26.823Z,8.52
2018-07-22T07:46:55.086Z,11.06
2018-07-22T07:49:23.372Z,9.74
2018-07-22T07:51:51.661Z,8.78
2018-07-22T07:54:19.944Z,9.82
2018-07-22T07:56:48.647Z,8.02
2018-07-22T07:59:16.950Z,7.18
2018-07-22T08:01:45.209Z,7.88
2018-07-22T08:04:13.502Z,8.38
2018-07-22T08:06:41.768Z,8.04
2018-07-22T08:09:10.046Z,9.28
2018-07-22T08:11:38.347Z,8.74
2018-07-22T08:14:06.640Z,7.20
2018-07-22T08:16:34.897Z,7.96
2018-07-22T08:19:03.181Z,8.18
2018-07-22T08:21:31.508Z,7.32
2018-07-22T08:23:59.846Z,6.62
2018-07-22T08:26:28.197Z,6.08
2018-07-22T08:28:56.496Z,7.86
2018-07-22T08:31:24.812Z,6.48
2018-07-22T08:34:08.128Z,6.76
2018-07-22T08:36:36.887Z,6.18
2018-07-22T08:39:05.180Z,6.20
2018-07-22T08:41:33.517Z,5.54
2018-07-22T08:44:03.190Z,5.92
2018-07-22T08:46:31.525Z,5.66
2018-07-22T08:48:59.806Z,5.12
2018-07-22T08:51:29.895Z,6.40
2018-07-22T08:53:58.320Z,5.36
2018-07-22T08:56:26.612Z,4.94
2018-07-22T08:58:54.937Z,5.32
2018-07-22T09:01:23.892Z,4.94
2018-07-22T09:03:52.232Z,4.98
2018-07-22T09:06:29.769Z,4.50
2018-07-22T09:08:58.053Z,4.80
2018-07-22T09:11:26.309Z,4.62
2018-07-22T09:13:54.592Z,5.20
2018-07-22T09:16:22.846Z,5.60
2018-07-22T09:18:51.128Z,5.08
2018-07-22T09:21:19.606Z,5.24
2018-07-22T09:23:47.932Z,4.90
2018-07-22T09:26:16.183Z,6.32
2018-07-22T09:28:44.465Z,5.52
2018-07-22T09:31:12.752Z,6.06
2018-07-22T09:33:41.302Z,5.20
2018-07-22T09:36:09.752Z,5.66
2018-07-22T09:38:37.876Z,5.76
2018-07-22T09:41:06.193Z,4.86
2018-07-22T09:43:34.455Z,5.30
2018-07-22T09:46:02.740Z,5.52
2018-07-22T09:48:31.326Z,5.18
2018-07-22T09:50:59.909Z,5.52
2018-07-22T09:53:28.615Z,5.60
2018-07-22T09:55:56.910Z,5.50
2018-07-22T09:58:25.504Z,5.94
2018-07-22T10:00:53.754Z,6.70
2018-07-22T10:03:22.033Z,7.54
2018-07-22T10:05:50.513Z,6.58
2018-07-22T10:08:19.281Z,7.38
2018-07-22T10:10:47.639Z,7.40
2018-07-22T10:13:15.892Z,6.82
2018-07-22T10:15:44.813Z,6.18
2018-07-22T10:18:13.472Z,7.22
2018-07-22T10:20:41.871Z,6.62
2018-07-22T10:23:10.123Z,7.14
2018-07-22T10:25:38.474Z,7.28
2018-07-22T10:28:06.745Z,7.32
2018-07-22T10:30:35.032Z,6.18
2018-07-22T10:33:03.302Z,7.42
2018-07-22T10:35:31.565Z,7.50
2018-07-22T10:37:59.824Z,9.00
2018-07-22T10:40:28.084Z,7.44
2018-07-22T10:42:56.364Z,7.46
2018-07-22T10:45:24.651Z,7.56
2018-07-22T10:47:52.932Z,8.56
2018-07-22T10:50:21.227Z,6.84
2018-07-22T10:52:48.727Z,7.10
2018-07-22T10:55:17.027Z,6.26
2018-07-22T10:57:45.309Z,6.90
2018-07-22T11:00:13.600Z,7.34
2018-07-22T11:02:41.860Z,8.54
2018-07-22T11:05:10.141Z,7.76
2018-07-22T11:07:38.403Z,6.84
2018-07-22T11:10:06.693Z,8.60
2018-07-22T11:12:34.953Z,8.16
2018-07-22T11:15:03.250Z,7.88
2018-07-22T11:17:31.501Z,7.02
2018-07-22T11:19:59.775Z,7.04
2018-07-22T11:22:28.033Z,7.64
2018-07-22T11:24:56.370Z,6.94
2018-07-22T11:27:24.632Z,6.58
2018-07-22T11:29:52.880Z,7.16
2018-07-22T11:32:21.166Z,7.68
2018-07-22T11:34:49.460Z,6.58
2018-07-22T11:37:17.731Z,7.42
2018-07-22T11:39:45.996Z,6.66
2018-07-22T11:42:14.282Z,6.76
2018-07-22T11:44:45.747Z,7.02
2018-07-22T11:47:14.021Z,6.98
2018-07-22T11:49:42.292Z,7.32
2018-07-22T11:52:10.573Z,7.28
2018-07-22T11:54:39.835Z,7.20
2018-07-22T11:57:08.112Z,7.82
2018-07-22T11:59:36.396Z,8.24
2018-07-22T12:02:04.653Z,8.78
2018-07-22T12:04:32.939Z,7.28
2018-07-22T12:07:01.199Z,7.64
2018-07-22T12:09:29.489Z,7.74
2018-07-22T12:11:57.752Z,6.72
2018-07-22T12:14:26.044Z,7.14
2018-07-22T12:16:54.308Z,6.48
2018-07-22T12:19:22.578Z,7.82
2018-07-22T12:21:50.856Z,7.10
2018-07-22T12:24:19.107Z,6.74
2018-07-22T12:26:47.387Z,6.12
2018-07-22T12:29:15.709Z,7.32
2018-07-22T12:31:43.924Z,7.72
2018-07-22T12:34:12.221Z,7.10
2018-07-22T12:36:40.468Z,6.90
2018-07-22T12:39:08.757Z,7.52
2018-07-22T12:41:37.007Z,7.20
2018-07-22T12:44:05.252Z,7.52
2018-07-22T12:46:33.575Z,7.96
2018-07-22T12:49:01.802Z,7.54
2018-07-22T12:51:30.080Z,7.20
2018-07-22T12:53:58.327Z,6.56
2018-07-22T12:56:26.612Z,7.20
2018-07-22T12:58:54.865Z,7.32
2018-07-22T13:01:23.140Z,7.24
2018-07-22T13:03:50.630Z,8.04
2018-07-22T13:06:18.932Z,6.44
2018-07-22T13:08:47.189Z,7.18
2018-07-22T13:11:15.468Z,7.08
2018-07-22T13:13:42.955Z,6.78
2018-07-22T13:16:17.196Z,6.00
2018-07-22T13:21:39.331Z,7.94
2018-07-22T13:24:07.592Z,6.44
2018-07-22T13:26:35.869Z,7.22
2018-07-22T13:29:04.115Z,6.98
2018-07-22T13:34:13.010Z,7.18
2018-07-22T13:36:41.252Z,7.80
2018-07-22T13:39:09.517Z,7.66
2018-07-22T13:41:37.788Z,6.32
2018-07-22T13:46:58.776Z,8.48
2018-07-22T13:49:26.307Z,7.16
2018-07-22T13:52:04.544Z,7.56
2018-07-22T13:54:53.052Z,7.22
2018-07-22T13:57:21.305Z,7.46
2018-07-22T13:59:50.260Z,8.42
2018-07-22T14:02:18.539Z,7.90
2018-07-22T14:04:46.792Z,7.44
2018-07-22T14:07:15.122Z,8.04
2018-07-22T14:09:42.615Z,7.52
2018-07-22T14:12:18.704Z,8.40
2018-07-22T14:17:40.144Z,7.68
2018-07-22T14:20:08.403Z,8.52
2018-07-22T14:22:36.768Z,8.40
2018-07-22T14:25:05.265Z,8.94
2018-07-22T14:27:33.495Z,8.20
2018-07-22T14:30:01.776Z,8.00
2018-07-22T14:32:30.025Z,9.20
2018-07-22T14:34:57.549Z,7.86
2018-07-22T14:37:25.806Z,8.42
2018-07-22T14:39:54.101Z,9.26
2018-07-22T14:42:22.384Z,10.44
2018-07-22T14:44:50.640Z,9.10
2018-07-22T14:47:18.990Z,8.00
2018-07-22T14:49:47.197Z,7.94
2018-07-22T14:52:54.665Z,8.60
2018-07-22T14:55:24.399Z,7.28
2018-07-22T14:57:52.689Z,8.50
2018-07-22T15:00:20.971Z,8.86
2018-07-22T15:02:49.260Z,8.88
2018-07-22T15:05:17.507Z,8.60
2018-07-22T15:07:45.811Z,8.24
2018-07-22T15:10:22.898Z,8.32
2018-07-22T15:12:51.209Z,9.28
2018-07-22T15:15:38.988Z,8.56
2018-07-22T15:18:07.272Z,7.70
2018-07-22T15:23:31.703Z,9.84
2018-07-22T15:25:59.995Z,7.76
2018-07-22T15:28:28.280Z,8.82
2018-07-22T15:30:56.604Z,8.08
2018-07-22T15:33:24.890Z,8.12
2018-07-22T15:35:53.144Z,8.32
2018-07-22T15:38:21.432Z,9.84
2018-07-22T15:40:49.675Z,8.24
2018-07-22T15:43:17.972Z,8.50
2018-07-22T15:45:46.235Z,8.62
2018-07-22T15:48:14.536Z,9.10
2018-07-22T15:50:42.792Z,8.78
2018-07-22T15:53:11.049Z,8.64
2018-07-22T15:55:39.604Z,8.44
2018-07-22T15:58:07.679Z,9.08
2018-07-22T16:00:36.027Z,8.80
2018-07-22T16:03:04.280Z,9.80
2018-07-22T16:05:31.803Z,9.08
2018-07-22T16:10:53.840Z,8.82
2018-07-22T16:19:08.094Z,9.22
2018-07-22T16:21:36.371Z,8.78
2018-07-22T16:24:04.678Z,7.96
2018-07-22T16:26:32.937Z,7.68
2018-07-22T16:29:01.232Z,8.92
2018-07-22T16:31:29.528Z,8.34
2018-07-22T16:33:57.793Z,9.00
2018-07-22T16:36:26.078Z,8.74
2018-07-22T16:38:53.561Z,8.80
2018-07-22T16:41:21.812Z,8.30
2018-07-22T16:43:50.088Z,8.50
2018-07-22T16:46:18.359Z,7.60
2018-07-22T16:48:46.633Z,8.12
2018-07-22T16:51:14.876Z,7.62
2018-07-22T16:53:43.199Z,8.46
2018-07-22T16:56:11.415Z,8.44
2018-07-22T16:58:39.692Z,8.26
2018-07-22T17:01:07.981Z,9.26
2018-07-22T17:03:36.228Z,7.38
2018-07-22T17:06:04.520Z,8.24
2018-07-22T17:08:45.615Z,8.10
2018-07-22T17:11:13.916Z,8.24
2018-07-22T17:13:42.173Z,7.92
2018-07-22T17:16:29.880Z,8.54
2018-07-22T17:18:58.139Z,7.74
2018-07-22T17:21:26.411Z,8.56
2018-07-22T17:23:55.675Z,7.50
2018-07-22T17:26:23.957Z,8.24
2018-07-22T17:28:55.828Z,7.42
2018-07-22T17:31:24.106Z,7.06
2018-07-22T17:33:52.348Z,7.44
2018-07-22T17:36:19.864Z,8.08
2018-07-22T17:38:48.148Z,7.82
2018-07-22T17:41:16.440Z,8.22
2018-07-22T17:43:44.699Z,7.42
2018-07-22T17:46:29.937Z,8.30
2018-07-22T17:51:51.752Z,7.02
2018-07-22T17:54:20.038Z,8.32
2018-07-22T17:56:48.292Z,7.94
2018-07-22T17:59:16.551Z,7.44
2018-07-22T18:01:44.852Z,7.74
2018-07-22T18:04:13.100Z,6.80
2018-07-22T18:06:41.384Z,7.60
2018-07-22T18:09:09.664Z,7.28
2018-07-22T18:11:39.884Z,7.08
2018-07-22T18:14:08.138Z,7.72
2018-07-22T18:16:37.396Z,5.40
2018-07-22T18:19:05.655Z,6.08
2018-07-22T18:21:33.958Z,5.28
2018-07-22T18:24:10.804Z,5.86
2018-07-22T18:26:39.109Z,5.14
2018-07-22T18:29:15.781Z,4.58
2018-07-22T18:31:44.083Z,5.04
2018-07-22T18:34:13.300Z,5.34
2018-07-22T18:39:34.325Z,5.22
2018-07-22T18:42:02.572Z,5.02
2018-07-22T18:44:30.848Z,4.94
2018-07-22T18:47:00.092Z,5.72
2018-07-22T18:49:28.383Z,5.32
2018-07-22T18:54:49.646Z,4.80
2018-07-22T18:57:17.884Z,4.96
2018-07-22T18:59:46.234Z,5.46
2018-07-22T19:02:14.431Z,5.38
2018-07-22T19:04:42.712Z,4.54
2018-07-22T19:07:10.963Z,5.00
2018-07-22T19:09:38.479Z,4.28
2018-07-22T19:12:06.739Z,4.16
2018-07-22T19:14:35.059Z,3.82
2018-07-22T19:17:03.336Z,4.06
2018-07-22T19:19:31.592Z,4.10
2018-07-22T19:22:00.810Z,4.08
2018-07-22T19:24:29.071Z,4.60
2018-07-22T19:26:57.361Z,4.30
2018-07-22T19:29:25.611Z,4.68
2018-07-22T19:37:41.636Z,4.54
2018-07-22T19:40:09.922Z,4.18
2018-07-22T19:42:42.625Z,3.98
2018-07-22T19:45:10.868Z,4.80
2018-07-22T19:50:38.592Z,3.72
2018-07-22T19:53:06.872Z,4.70
2018-07-22T19:55:36.127Z,4.14
2018-07-22T19:58:04.388Z,4.00
2018-07-22T20:00:41.961Z,4.48
2018-07-22T20:06:03.407Z,4.42
2018-07-22T20:08:38.408Z,4.40
2018-07-22T20:11:06.664Z,4.02
2018-07-22T20:13:35.936Z,3.96
2018-07-22T20:16:03.448Z,4.38
2018-07-22T20:18:39.639Z,4.12
2018-07-22T20:21:07.924Z,4.54
2018-07-22T20:23:37.139Z,4.38
2018-07-22T20:26:05.440Z,3.84
2018-07-22T20:28:33.693Z,4.26
2018-07-22T20:31:01.944Z,3.98
2018-07-22T20:33:38.089Z,4.90
2018-07-22T20:36:06.427Z,3.52
2018-07-22T20:38:38.276Z,4.24
2018-07-22T20:41:06.804Z,3.94
2018-07-22T20:43:36.979Z,4.62
2018-07-22T20:46:05.256Z,4.80
2018-07-22T20:48:33.520Z,4.72
2018-07-22T20:51:01.819Z,4.46
2018-07-22T20:53:30.085Z,4.18
2018-07-22T20:55:58.394Z,5.06
2018-07-22T20:58:26.675Z,4.52
2018-07-22T21:00:54.946Z,5.50
2018-07-22T21:03:22.474Z,4.78
2018-07-22T21:05:50.731Z,4.16
2018-07-22T21:08:19.028Z,4.54
2018-07-22T21:10:47.360Z,5.32
2018-07-22T21:13:16.564Z,5.06
2018-07-22T21:15:44.859Z,4.78
2018-07-22T21:18:13.113Z,5.04
2018-07-22T21:20:41.400Z,5.14
2018-07-22T21:23:09.660Z,5.72
2018-07-22T21:25:37.948Z,4.60
2018-07-22T21:28:06.204Z,4.70
2018-07-22T21:30:34.493Z,5.68
2018-07-22T21:33:02.768Z,5.60
2018-07-22T21:35:31.055Z,4.18
2018-07-22T21:37:59.316Z,5.28
2018-07-22T21:40:27.641Z,6.10
2018-07-22T21:42:55.929Z,6.00
2018-07-22T21:45:24.209Z,6.68
2018-07-22T21:47:52.492Z,5.66
2018-07-22T21:50:20.785Z,5.10
2018-07-22T21:52:49.060Z,5.28
2018-07-22T21:55:17.325Z,4.96
2018-07-22T21:57:45.613Z,6.12
2018-07-22T22:00:13.868Z,5.86
2018-07-22T22:02:42.161Z,5.16
2018-07-22T22:05:10.417Z,5.58
2018-07-22T22:07:38.664Z,5.78
2018-07-22T22:10:06.944Z,6.24
2018-07-22T22:12:35.196Z,5.40
2018-07-22T22:15:03.473Z,6.58
2018-07-22T22:17:31.728Z,5.50
2018-07-22T22:20:00.022Z,5.40
2018-07-22T22:22:28.275Z,5.46
2018-07-22T22:24:56.529Z,6.30
2018-07-22T22:27:24.810Z,6.28
2018-07-22T22:29:53.121Z,6.26
2018-07-22T22:32:21.360Z,6.50
2018-07-22T22:34:49.648Z,5.98
2018-07-22T22:37:17.900Z,6.08
2018-07-22T22:39:46.171Z,6.08
2018-07-22T22:42:14.435Z,5.32
2018-07-22T22:44:42.730Z,6.44
2018-07-22T22:47:10.971Z,6.62
2018-07-22T22:49:39.256Z,6.46
2018-07-22T22:52:07.529Z,6.04
2018-07-22T22:54:39.064Z,6.22
2018-07-22T22:57:07.345Z,5.12
2018-07-22T22:59:35.606Z,5.68
2018-07-22T23:04:57.080Z,5.52
2018-07-22T23:07:25.343Z,5.58
2018-07-22T23:09:53.603Z,6.78
2018-07-22T23:18:08.409Z,5.54
2018-07-22T23:20:36.664Z,6.36
2018-07-22T23:23:04.918Z,5.82
2018-07-22T23:25:33.195Z,5.80
2018-07-22T23:28:01.450Z,6.40
2018-07-22T23:30:29.733Z,6.14
2018-07-22T23:32:57.227Z,6.54
2018-07-22T23:35:25.504Z,5.72
2018-07-22T23:37:53.788Z,5.84
2018-07-22T23:40:22.032Z,6.14
2018-07-22T23:42:50.351Z,6.68
2018-07-22T23:45:18.577Z,5.98
2018-07-22T23:47:46.833Z,6.64
2018-07-22T23:50:15.123Z,6.38
2018-07-22T23:52:42.608Z,7.46
2018-07-22T23:55:10.869Z,7.88
2018-07-22T23:57:39.148Z,8.28
